sensor_id;sensor_type;location;lat;lon;timestamp;P1;durP1;ratioP1;P2;durP2;ratioP2
42770;SDS011;28426;42.872;25.314;2023-06-14T00:00:53;16.85;;;12.02;;
42770;SDS011;28426;42.872;25.314;2023-06-14T00:03:24;14.95;;;12.30;;
42770;SDS011;28426;42.872;25.314;2023-06-14T00:05:56;15.20;;;11.60;;
42770;SDS011;28426;42.872;25.314;2023-06-14T00:08:30;17.00;;;11.68;;
42770;SDS011;28426;42.872;25.314;2023-06-14T00:11:00;16.83;;;11.60;;
42770;SDS011;28426;42.872;25.314;2023-06-14T00:13:31;17.77;;;11.02;;
42770;SDS011;28426;42.872;25.314;2023-06-14T00:16:02;17.95;;;11.30;;
42770;SDS011;28426;42.872;25.314;2023-06-14T00:18:33;14.02;;;11.10;;
42770;SDS011;28426;42.872;25.314;2023-06-14T00:21:05;16.27;;;10.70;;
42770;SDS011;28426;42.872;25.314;2023-06-14T00:23:39;16.17;;;11.10;;
42770;SDS011;28426;42.872;25.314;2023-06-14T00:26:10;15.30;;;10.65;;
42770;SDS011;28426;42.872;25.314;2023-06-14T00:28:43;19.67;;;11.52;;
42770;SDS011;28426;42.872;25.314;2023-06-14T00:31:14;13.95;;;10.68;;
42770;SDS011;28426;42.872;25.314;2023-06-14T00:33:45;14.32;;;10.93;;
42770;SDS011;28426;42.872;25.314;2023-06-14T00:36:16;16.25;;;10.70;;
42770;SDS011;28426;42.872;25.314;2023-06-14T00:38:49;12.90;;;10.73;;
42770;SDS011;28426;42.872;25.314;2023-06-14T00:41:21;14.48;;;11.18;;
42770;SDS011;28426;42.872;25.314;2023-06-14T00:43:53;14.23;;;10.55;;
42770;SDS011;28426;42.872;25.314;2023-06-14T00:46:24;15.20;;;10.02;;
42770;SDS011;28426;42.872;25.314;2023-06-14T00:48:55;13.02;;;10.13;;
42770;SDS011;28426;42.872;25.314;2023-06-14T00:51:28;15.35;;;10.55;;
42770;SDS011;28426;42.872;25.314;2023-06-14T00:54:02;14.05;;;10.15;;
42770;SDS011;28426;42.872;25.314;2023-06-14T00:56:35;13.65;;;9.90;;
42770;SDS011;28426;42.872;25.314;2023-06-14T00:59:06;13.70;;;10.65;;
42770;SDS011;28426;42.872;25.314;2023-06-14T01:01:38;15.77;;;10.27;;
42770;SDS011;28426;42.872;25.314;2023-06-14T01:04:09;15.57;;;10.73;;
42770;SDS011;28426;42.872;25.314;2023-06-14T01:06:43;13.00;;;10.13;;
42770;SDS011;28426;42.872;25.314;2023-06-14T01:09:23;14.48;;;10.50;;
42770;SDS011;28426;42.872;25.314;2023-06-14T01:12:04;16.17;;;10.50;;
42770;SDS011;28426;42.872;25.314;2023-06-14T01:14:41;14.07;;;10.65;;
42770;SDS011;28426;42.872;25.314;2023-06-14T01:17:13;13.85;;;10.40;;
42770;SDS011;28426;42.872;25.314;2023-06-14T01:19:47;17.25;;;11.07;;
42770;SDS011;28426;42.872;25.314;2023-06-14T01:22:24;15.30;;;10.32;;
42770;SDS011;28426;42.872;25.314;2023-06-14T01:24:59;12.85;;;10.35;;
42770;SDS011;28426;42.872;25.314;2023-06-14T01:27:30;15.55;;;10.93;;
42770;SDS011;28426;42.872;25.314;2023-06-14T01:30:01;12.43;;;10.18;;
42770;SDS011;28426;42.872;25.314;2023-06-14T01:32:32;13.55;;;10.32;;
42770;SDS011;28426;42.872;25.314;2023-06-14T01:35:04;13.43;;;10.65;;
42770;SDS011;28426;42.872;25.314;2023-06-14T01:37:36;14.18;;;10.93;;
42770;SDS011;28426;42.872;25.314;2023-06-14T01:40:10;14.95;;;10.57;;
42770;SDS011;28426;42.872;25.314;2023-06-14T01:42:43;14.02;;;10.73;;
42770;SDS011;28426;42.872;25.314;2023-06-14T01:45:18;13.73;;;11.27;;
42770;SDS011;28426;42.872;25.314;2023-06-14T01:47:50;16.27;;;10.88;;
42770;SDS011;28426;42.872;25.314;2023-06-14T01:50:21;16.75;;;11.75;;
42770;SDS011;28426;42.872;25.314;2023-06-14T01:52:52;14.15;;;10.88;;
42770;SDS011;28426;42.872;25.314;2023-06-14T01:55:25;18.90;;;12.05;;
42770;SDS011;28426;42.872;25.314;2023-06-14T01:57:56;17.02;;;12.38;;
42770;SDS011;28426;42.872;25.314;2023-06-14T02:00:27;18.95;;;12.10;;
42770;SDS011;28426;42.872;25.314;2023-06-14T02:02:58;16.85;;;11.75;;
42770;SDS011;28426;42.872;25.314;2023-06-14T02:05:29;17.23;;;11.80;;
42770;SDS011;28426;42.872;25.314;2023-06-14T02:08:02;19.80;;;12.55;;
42770;SDS011;28426;42.872;25.314;2023-06-14T02:10:35;16.67;;;12.13;;
42770;SDS011;28426;42.872;25.314;2023-06-14T02:13:06;16.00;;;11.70;;
42770;SDS011;28426;42.872;25.314;2023-06-14T02:15:39;20.13;;;12.80;;
42770;SDS011;28426;42.872;25.314;2023-06-14T02:18:11;17.77;;;12.13;;
42770;SDS011;28426;42.872;25.314;2023-06-14T02:21:03;21.00;;;12.85;;
42770;SDS011;28426;42.872;25.314;2023-06-14T02:23:34;15.13;;;11.80;;
42770;SDS011;28426;42.872;25.314;2023-06-14T02:26:07;20.20;;;13.48;;
42770;SDS011;28426;42.872;25.314;2023-06-14T02:28:38;16.70;;;12.25;;
42770;SDS011;28426;42.872;25.314;2023-06-14T02:31:09;19.33;;;14.20;;
42770;SDS011;28426;42.872;25.314;2023-06-14T02:33:40;20.05;;;13.75;;
42770;SDS011;28426;42.872;25.314;2023-06-14T02:36:11;17.90;;;12.27;;
42770;SDS011;28426;42.872;25.314;2023-06-14T02:38:42;18.77;;;12.30;;
42770;SDS011;28426;42.872;25.314;2023-06-14T02:41:16;19.73;;;12.82;;
42770;SDS011;28426;42.872;25.314;2023-06-14T02:43:47;17.00;;;12.15;;
42770;SDS011;28426;42.872;25.314;2023-06-14T02:46:18;20.20;;;12.88;;
42770;SDS011;28426;42.872;25.314;2023-06-14T02:48:49;17.63;;;12.27;;
42770;SDS011;28426;42.872;25.314;2023-06-14T02:51:20;18.08;;;12.98;;
42770;SDS011;28426;42.872;25.314;2023-06-14T02:53:51;15.77;;;12.77;;
42770;SDS011;28426;42.872;25.314;2023-06-14T02:56:25;17.92;;;13.48;;
42770;SDS011;28426;42.872;25.314;2023-06-14T02:58:56;17.13;;;12.80;;
42770;SDS011;28426;42.872;25.314;2023-06-14T03:01:27;20.40;;;13.15;;
42770;SDS011;28426;42.872;25.314;2023-06-14T03:04:06;20.63;;;12.43;;
42770;SDS011;28426;42.872;25.314;2023-06-14T03:06:39;16.20;;;12.13;;
42770;SDS011;28426;42.872;25.314;2023-06-14T03:09:13;16.55;;;12.13;;
42770;SDS011;28426;42.872;25.314;2023-06-14T03:11:46;17.90;;;13.13;;
42770;SDS011;28426;42.872;25.314;2023-06-14T03:14:17;19.10;;;12.93;;
42770;SDS011;28426;42.872;25.314;2023-06-14T03:16:48;20.73;;;13.40;;
42770;SDS011;28426;42.872;25.314;2023-06-14T03:19:24;18.70;;;13.05;;
42770;SDS011;28426;42.872;25.314;2023-06-14T03:21:55;19.83;;;13.40;;
42770;SDS011;28426;42.872;25.314;2023-06-14T03:24:29;17.60;;;12.18;;
42770;SDS011;28426;42.872;25.314;2023-06-14T03:27:12;15.45;;;11.85;;
42770;SDS011;28426;42.872;25.314;2023-06-14T03:29:46;15.32;;;11.60;;
42770;SDS011;28426;42.872;25.314;2023-06-14T03:32:17;20.40;;;12.95;;
42770;SDS011;28426;42.872;25.314;2023-06-14T03:34:48;17.98;;;12.10;;
42770;SDS011;28426;42.872;25.314;2023-06-14T03:37:23;22.90;;;13.65;;
42770;SDS011;28426;42.872;25.314;2023-06-14T03:39:54;25.42;;;12.88;;
42770;SDS011;28426;42.872;25.314;2023-06-14T03:42:28;17.60;;;12.68;;
42770;SDS011;28426;42.872;25.314;2023-06-14T03:44:58;20.88;;;13.45;;
42770;SDS011;28426;42.872;25.314;2023-06-14T03:47:30;18.23;;;13.10;;
42770;SDS011;28426;42.872;25.314;2023-06-14T03:50:02;16.90;;;12.32;;
42770;SDS011;28426;42.872;25.314;2023-06-14T03:52:34;21.13;;;13.30;;
42770;SDS011;28426;42.872;25.314;2023-06-14T03:55:06;22.77;;;13.90;;
42770;SDS011;28426;42.872;25.314;2023-06-14T03:57:43;20.00;;;13.98;;
42770;SDS011;28426;42.872;25.314;2023-06-14T04:00:17;21.45;;;13.88;;
42770;SDS011;28426;42.872;25.314;2023-06-14T04:02:48;26.13;;;13.57;;
42770;SDS011;28426;42.872;25.314;2023-06-14T04:05:19;19.42;;;13.38;;
42770;SDS011;28426;42.872;25.314;2023-06-14T04:07:55;19.77;;;13.23;;
42770;SDS011;28426;42.872;25.314;2023-06-14T04:10:31;18.98;;;13.32;;
42770;SDS011;28426;42.872;25.314;2023-06-14T04:13:04;22.52;;;12.93;;
42770;SDS011;28426;42.872;25.314;2023-06-14T04:15:35;18.60;;;12.27;;
42770;SDS011;28426;42.872;25.314;2023-06-14T04:18:11;16.08;;;11.88;;
42770;SDS011;28426;42.872;25.314;2023-06-14T04:20:43;14.43;;;11.65;;
42770;SDS011;28426;42.872;25.314;2023-06-14T04:23:14;20.33;;;11.80;;
42770;SDS011;28426;42.872;25.314;2023-06-14T04:25:46;16.35;;;11.15;;
42770;SDS011;28426;42.872;25.314;2023-06-14T04:28:20;19.40;;;11.02;;
42770;SDS011;28426;42.872;25.314;2023-06-14T04:30:57;17.23;;;10.73;;
42770;SDS011;28426;42.872;25.314;2023-06-14T04:33:31;17.55;;;11.55;;
42770;SDS011;28426;42.872;25.314;2023-06-14T04:36:14;22.48;;;11.70;;
42770;SDS011;28426;42.872;25.314;2023-06-14T04:38:47;26.23;;;13.02;;
42770;SDS011;28426;42.872;25.314;2023-06-14T04:41:24;21.50;;;12.40;;
42770;SDS011;28426;42.872;25.314;2023-06-14T04:44:01;25.95;;;12.90;;
42770;SDS011;28426;42.872;25.314;2023-06-14T04:46:39;21.85;;;12.40;;
42770;SDS011;28426;42.872;25.314;2023-06-14T04:49:19;22.10;;;12.23;;
42770;SDS011;28426;42.872;25.314;2023-06-14T04:51:54;17.67;;;12.55;;
42770;SDS011;28426;42.872;25.314;2023-06-14T04:54:31;17.17;;;11.23;;
42770;SDS011;28426;42.872;25.314;2023-06-14T04:57:07;17.67;;;12.32;;
42770;SDS011;28426;42.872;25.314;2023-06-14T04:59:46;14.88;;;10.95;;
42770;SDS011;28426;42.872;25.314;2023-06-14T05:02:24;12.90;;;10.95;;
42770;SDS011;28426;42.872;25.314;2023-06-14T05:04:59;13.63;;;11.15;;
42770;SDS011;28426;42.872;25.314;2023-06-14T05:07:31;13.38;;;11.88;;
42770;SDS011;28426;42.872;25.314;2023-06-14T05:10:02;16.30;;;11.35;;
42770;SDS011;28426;42.872;25.314;2023-06-14T05:12:33;14.60;;;10.65;;
42770;SDS011;28426;42.872;25.314;2023-06-14T05:15:10;13.90;;;10.60;;
42770;SDS011;28426;42.872;25.314;2023-06-14T05:17:43;14.43;;;10.43;;
42770;SDS011;28426;42.872;25.314;2023-06-14T05:20:20;13.82;;;11.32;;
42770;SDS011;28426;42.872;25.314;2023-06-14T05:22:53;12.65;;;10.82;;
42770;SDS011;28426;42.872;25.314;2023-06-14T05:25:25;14.80;;;11.57;;
42770;SDS011;28426;42.872;25.314;2023-06-14T05:27:56;14.35;;;11.35;;
42770;SDS011;28426;42.872;25.314;2023-06-14T05:30:29;13.45;;;10.43;;
42770;SDS011;28426;42.872;25.314;2023-06-14T05:33:00;13.05;;;9.52;;
42770;SDS011;28426;42.872;25.314;2023-06-14T05:35:31;14.73;;;10.45;;
42770;SDS011;28426;42.872;25.314;2023-06-14T05:38:02;12.32;;;10.00;;
42770;SDS011;28426;42.872;25.314;2023-06-14T05:40:35;12.82;;;9.45;;
42770;SDS011;28426;42.872;25.314;2023-06-14T05:43:06;13.05;;;8.85;;
42770;SDS011;28426;42.872;25.314;2023-06-14T05:45:40;11.50;;;9.10;;
42770;SDS011;28426;42.872;25.314;2023-06-14T05:48:11;10.52;;;8.48;;
42770;SDS011;28426;42.872;25.314;2023-06-14T05:50:42;11.32;;;8.50;;
42770;SDS011;28426;42.872;25.314;2023-06-14T05:53:12;9.90;;;7.95;;
42770;SDS011;28426;42.872;25.314;2023-06-14T05:55:43;10.35;;;7.78;;
42770;SDS011;28426;42.872;25.314;2023-06-14T05:58:14;10.82;;;8.07;;
42770;SDS011;28426;42.872;25.314;2023-06-14T06:00:48;12.32;;;8.88;;
42770;SDS011;28426;42.872;25.314;2023-06-14T06:03:20;13.07;;;10.20;;
42770;SDS011;28426;42.872;25.314;2023-06-14T06:05:51;11.27;;;8.52;;
42770;SDS011;28426;42.872;25.314;2023-06-14T06:08:22;12.02;;;8.07;;
42770;SDS011;28426;42.872;25.314;2023-06-14T06:10:53;9.88;;;7.60;;
42770;SDS011;28426;42.872;25.314;2023-06-14T06:13:24;10.90;;;8.57;;
42770;SDS011;28426;42.872;25.314;2023-06-14T06:15:58;10.13;;;7.88;;
42770;SDS011;28426;42.872;25.314;2023-06-14T06:18:28;11.27;;;8.60;;
42770;SDS011;28426;42.872;25.314;2023-06-14T06:20:59;8.85;;;7.03;;
42770;SDS011;28426;42.872;25.314;2023-06-14T06:23:30;10.85;;;7.10;;
42770;SDS011;28426;42.872;25.314;2023-06-14T06:26:01;8.80;;;7.47;;
42770;SDS011;28426;42.872;25.314;2023-06-14T06:28:32;9.77;;;7.53;;
42770;SDS011;28426;42.872;25.314;2023-06-14T06:31:06;9.68;;;7.32;;
42770;SDS011;28426;42.872;25.314;2023-06-14T06:33:37;10.40;;;8.25;;
42770;SDS011;28426;42.872;25.314;2023-06-14T06:36:08;9.52;;;6.80;;
42770;SDS011;28426;42.872;25.314;2023-06-14T06:38:39;8.23;;;6.18;;
42770;SDS011;28426;42.872;25.314;2023-06-14T06:41:10;9.32;;;6.65;;
42770;SDS011;28426;42.872;25.314;2023-06-14T06:43:40;8.80;;;6.93;;
42770;SDS011;28426;42.872;25.314;2023-06-14T06:46:18;8.45;;;6.82;;
42770;SDS011;28426;42.872;25.314;2023-06-14T06:48:49;8.68;;;7.05;;
42770;SDS011;28426;42.872;25.314;2023-06-14T06:51:20;9.25;;;7.68;;
42770;SDS011;28426;42.872;25.314;2023-06-14T06:53:52;10.93;;;8.35;;
42770;SDS011;28426;42.872;25.314;2023-06-14T06:56:23;10.98;;;8.10;;
42770;SDS011;28426;42.872;25.314;2023-06-14T06:58:54;11.30;;;8.90;;
42770;SDS011;28426;42.872;25.314;2023-06-14T07:01:27;11.48;;;8.52;;
42770;SDS011;28426;42.872;25.314;2023-06-14T07:04:01;9.88;;;7.50;;
42770;SDS011;28426;42.872;25.314;2023-06-14T07:06:31;8.90;;;7.18;;
42770;SDS011;28426;42.872;25.314;2023-06-14T07:09:03;8.57;;;7.22;;
42770;SDS011;28426;42.872;25.314;2023-06-14T07:11:35;10.10;;;8.20;;
42770;SDS011;28426;42.872;25.314;2023-06-14T07:14:06;10.05;;;7.75;;
42770;SDS011;28426;42.872;25.314;2023-06-14T07:16:39;12.20;;;8.38;;
42770;SDS011;28426;42.872;25.314;2023-06-14T07:19:11;11.20;;;8.68;;
42770;SDS011;28426;42.872;25.314;2023-06-14T07:21:42;14.48;;;8.30;;
42770;SDS011;28426;42.872;25.314;2023-06-14T07:24:13;16.00;;;8.55;;
42770;SDS011;28426;42.872;25.314;2023-06-14T07:26:44;12.88;;;8.38;;
42770;SDS011;28426;42.872;25.314;2023-06-14T07:29:15;13.40;;;8.65;;
42770;SDS011;28426;42.872;25.314;2023-06-14T07:31:49;21.27;;;9.35;;
42770;SDS011;28426;42.872;25.314;2023-06-14T07:34:20;22.40;;;9.65;;
42770;SDS011;28426;42.872;25.314;2023-06-14T07:36:51;17.70;;;9.20;;
42770;SDS011;28426;42.872;25.314;2023-06-14T07:39:22;16.08;;;9.40;;
42770;SDS011;28426;42.872;25.314;2023-06-14T07:41:52;15.40;;;9.48;;
42770;SDS011;28426;42.872;25.314;2023-06-14T07:44:23;14.30;;;9.40;;
42770;SDS011;28426;42.872;25.314;2023-06-14T07:46:57;25.20;;;9.45;;
42770;SDS011;28426;42.872;25.314;2023-06-14T07:49:28;16.48;;;8.80;;
42770;SDS011;28426;42.872;25.314;2023-06-14T07:51:59;13.98;;;8.65;;
42770;SDS011;28426;42.872;25.314;2023-06-14T07:54:30;13.00;;;8.63;;
42770;SDS011;28426;42.872;25.314;2023-06-14T07:57:00;17.85;;;9.45;;
42770;SDS011;28426;42.872;25.314;2023-06-14T07:59:31;13.40;;;9.00;;
42770;SDS011;28426;42.872;25.314;2023-06-14T08:02:05;18.45;;;9.38;;
42770;SDS011;28426;42.872;25.314;2023-06-14T08:04:36;18.50;;;9.27;;
42770;SDS011;28426;42.872;25.314;2023-06-14T08:07:08;18.75;;;9.43;;
42770;SDS011;28426;42.872;25.314;2023-06-14T08:09:39;16.27;;;9.38;;
42770;SDS011;28426;42.872;25.314;2023-06-14T08:12:10;33.85;;;10.05;;
42770;SDS011;28426;42.872;25.314;2023-06-14T08:14:41;13.98;;;8.70;;
42770;SDS011;28426;42.872;25.314;2023-06-14T08:17:19;22.00;;;9.50;;
42770;SDS011;28426;42.872;25.314;2023-06-14T08:19:50;16.17;;;8.63;;
42770;SDS011;28426;42.872;25.314;2023-06-14T08:22:22;18.83;;;8.73;;
42770;SDS011;28426;42.872;25.314;2023-06-14T08:24:55;12.07;;;7.95;;
42770;SDS011;28426;42.872;25.314;2023-06-14T08:27:26;10.35;;;7.80;;
42770;SDS011;28426;42.872;25.314;2023-06-14T08:29:57;13.50;;;8.18;;
42770;SDS011;28426;42.872;25.314;2023-06-14T08:32:34;11.73;;;8.53;;
42770;SDS011;28426;42.872;25.314;2023-06-14T08:35:05;19.67;;;8.32;;
42770;SDS011;28426;42.872;25.314;2023-06-14T08:37:38;21.27;;;10.05;;
42770;SDS011;28426;42.872;25.314;2023-06-14T08:40:16;14.15;;;8.45;;
42770;SDS011;28426;42.872;25.314;2023-06-14T08:42:50;12.13;;;7.85;;
42770;SDS011;28426;42.872;25.314;2023-06-14T08:45:23;23.85;;;8.65;;
42770;SDS011;28426;42.872;25.314;2023-06-14T08:48:01;19.88;;;8.50;;
42770;SDS011;28426;42.872;25.314;2023-06-14T08:50:32;18.80;;;8.82;;
42770;SDS011;28426;42.872;25.314;2023-06-14T08:53:06;18.13;;;8.00;;
42770;SDS011;28426;42.872;25.314;2023-06-14T08:55:39;14.02;;;7.47;;
42770;SDS011;28426;42.872;25.314;2023-06-14T08:58:10;15.48;;;8.20;;
42770;SDS011;28426;42.872;25.314;2023-06-14T09:00:42;24.25;;;9.88;;
42770;SDS011;28426;42.872;25.314;2023-06-14T09:03:16;32.40;;;10.52;;
42770;SDS011;28426;42.872;25.314;2023-06-14T09:05:48;18.77;;;8.20;;
42770;SDS011;28426;42.872;25.314;2023-06-14T09:08:20;21.67;;;7.70;;
42770;SDS011;28426;42.872;25.314;2023-06-14T09:10:50;15.32;;;7.18;;
42770;SDS011;28426;42.872;25.314;2023-06-14T09:13:22;10.52;;;7.13;;
42770;SDS011;28426;42.872;25.314;2023-06-14T09:15:57;17.35;;;7.45;;
42770;SDS011;28426;42.872;25.314;2023-06-14T09:18:36;12.05;;;8.05;;
42770;SDS011;28426;42.872;25.314;2023-06-14T09:21:08;12.35;;;6.20;;
42770;SDS011;28426;42.872;25.314;2023-06-14T09:23:39;10.32;;;7.05;;
42770;SDS011;28426;42.872;25.314;2023-06-14T09:26:13;13.70;;;7.05;;
42770;SDS011;28426;42.872;25.314;2023-06-14T09:28:46;12.68;;;6.82;;
42770;SDS011;28426;42.872;25.314;2023-06-14T09:31:18;14.68;;;6.70;;
42770;SDS011;28426;42.872;25.314;2023-06-14T09:33:52;17.55;;;7.57;;
42770;SDS011;28426;42.872;25.314;2023-06-14T09:36:24;11.68;;;6.32;;
42770;SDS011;28426;42.872;25.314;2023-06-14T09:38:56;8.43;;;5.93;;
42770;SDS011;28426;42.872;25.314;2023-06-14T09:41:31;22.02;;;6.30;;
42770;SDS011;28426;42.872;25.314;2023-06-14T09:44:03;9.38;;;5.50;;
42770;SDS011;28426;42.872;25.314;2023-06-14T09:46:41;10.38;;;6.07;;
42770;SDS011;28426;42.872;25.314;2023-06-14T09:49:15;9.95;;;5.97;;
42770;SDS011;28426;42.872;25.314;2023-06-14T09:51:48;11.43;;;5.90;;
42770;SDS011;28426;42.872;25.314;2023-06-14T09:54:22;8.10;;;5.38;;
42770;SDS011;28426;42.872;25.314;2023-06-14T09:56:56;9.57;;;5.93;;
42770;SDS011;28426;42.872;25.314;2023-06-14T09:59:27;8.73;;;5.50;;
42770;SDS011;28426;42.872;25.314;2023-06-14T10:02:03;9.15;;;5.57;;
42770;SDS011;28426;42.872;25.314;2023-06-14T10:04:46;7.35;;;4.80;;
42770;SDS011;28426;42.872;25.314;2023-06-14T10:07:20;8.18;;;5.25;;
42770;SDS011;28426;42.872;25.314;2023-06-14T10:09:52;8.35;;;5.25;;
42770;SDS011;28426;42.872;25.314;2023-06-14T10:12:24;9.25;;;4.60;;
42770;SDS011;28426;42.872;25.314;2023-06-14T10:14:55;7.88;;;4.88;;
42770;SDS011;28426;42.872;25.314;2023-06-14T10:17:33;8.65;;;4.72;;
42770;SDS011;28426;42.872;25.314;2023-06-14T10:20:24;7.75;;;5.32;;
42770;SDS011;28426;42.872;25.314;2023-06-14T10:23:01;9.20;;;4.93;;
42770;SDS011;28426;42.872;25.314;2023-06-14T10:25:36;12.20;;;5.28;;
42770;SDS011;28426;42.872;25.314;2023-06-14T10:28:16;6.45;;;4.65;;
42770;SDS011;28426;42.872;25.314;2023-06-14T10:31:05;9.88;;;5.20;;
42770;SDS011;28426;42.872;25.314;2023-06-14T10:33:39;7.65;;;5.53;;
42770;SDS011;28426;42.872;25.314;2023-06-14T10:36:28;9.82;;;4.93;;
42770;SDS011;28426;42.872;25.314;2023-06-14T10:39:05;7.47;;;4.90;;
42770;SDS011;28426;42.872;25.314;2023-06-14T10:41:37;13.07;;;5.38;;
42770;SDS011;28426;42.872;25.314;2023-06-14T10:47:23;12.38;;;5.68;;
42770;SDS011;28426;42.872;25.314;2023-06-14T10:49:56;10.05;;;6.00;;
42770;SDS011;28426;42.872;25.314;2023-06-14T10:52:37;12.85;;;5.38;;
42770;SDS011;28426;42.872;25.314;2023-06-14T10:55:13;8.52;;;6.03;;
42770;SDS011;28426;42.872;25.314;2023-06-14T10:57:48;13.77;;;5.75;;
42770;SDS011;28426;42.872;25.314;2023-06-14T11:00:24;7.10;;;5.22;;
42770;SDS011;28426;42.872;25.314;2023-06-14T11:03:23;9.95;;;5.13;;
42770;SDS011;28426;42.872;25.314;2023-06-14T11:06:21;7.90;;;5.43;;
42770;SDS011;28426;42.872;25.314;2023-06-14T11:12:00;8.85;;;5.35;;
42770;SDS011;28426;42.872;25.314;2023-06-14T11:14:33;9.48;;;5.60;;
42770;SDS011;28426;42.872;25.314;2023-06-14T11:17:04;8.98;;;5.50;;
42770;SDS011;28426;42.872;25.314;2023-06-14T11:19:35;10.02;;;5.85;;
42770;SDS011;28426;42.872;25.314;2023-06-14T11:22:06;8.02;;;5.78;;
42770;SDS011;28426;42.872;25.314;2023-06-14T11:24:37;7.20;;;4.65;;
42770;SDS011;28426;42.872;25.314;2023-06-14T11:27:10;9.65;;;6.05;;
42770;SDS011;28426;42.872;25.314;2023-06-14T11:29:47;14.30;;;9.70;;
42770;SDS011;28426;42.872;25.314;2023-06-14T11:32:18;10.50;;;6.50;;
42770;SDS011;28426;42.872;25.314;2023-06-14T11:34:49;7.70;;;6.10;;
42770;SDS011;28426;42.872;25.314;2023-06-14T11:37:20;7.82;;;6.13;;
42770;SDS011;28426;42.872;25.314;2023-06-14T11:39:55;8.05;;;5.90;;
42770;SDS011;28426;42.872;25.314;2023-06-14T11:42:29;9.93;;;6.60;;
42770;SDS011;28426;42.872;25.314;2023-06-14T11:45:00;7.57;;;5.80;;
42770;SDS011;28426;42.872;25.314;2023-06-14T11:47:36;8.25;;;5.60;;
42770;SDS011;28426;42.872;25.314;2023-06-14T11:50:08;7.57;;;5.75;;
42770;SDS011;28426;42.872;25.314;2023-06-14T11:52:40;7.13;;;5.95;;
42770;SDS011;28426;42.872;25.314;2023-06-14T11:55:12;8.75;;;5.97;;
42770;SDS011;28426;42.872;25.314;2023-06-14T11:57:46;7.63;;;5.97;;
42770;SDS011;28426;42.872;25.314;2023-06-14T12:00:17;6.93;;;5.53;;
42770;SDS011;28426;42.872;25.314;2023-06-14T12:02:55;6.95;;;5.05;;
42770;SDS011;28426;42.872;25.314;2023-06-14T12:05:26;6.57;;;4.15;;
42770;SDS011;28426;42.872;25.314;2023-06-14T12:07:58;11.55;;;5.90;;
42770;SDS011;28426;42.872;25.314;2023-06-14T12:10:30;5.80;;;3.80;;
42770;SDS011;28426;42.872;25.314;2023-06-14T12:13:13;6.32;;;4.47;;
42770;SDS011;28426;42.872;25.314;2023-06-14T12:15:53;10.43;;;4.35;;
42770;SDS011;28426;42.872;25.314;2023-06-14T12:18:31;7.50;;;4.15;;
42770;SDS011;28426;42.872;25.314;2023-06-14T12:21:03;6.38;;;3.83;;
42770;SDS011;28426;42.872;25.314;2023-06-14T12:23:44;5.03;;;3.85;;
42770;SDS011;28426;42.872;25.314;2023-06-14T12:26:17;6.38;;;4.03;;
42770;SDS011;28426;42.872;25.314;2023-06-14T12:28:51;7.78;;;6.32;;
42770;SDS011;28426;42.872;25.314;2023-06-14T12:31:22;6.03;;;4.18;;
42770;SDS011;28426;42.872;25.314;2023-06-14T12:33:53;6.32;;;4.00;;
42770;SDS011;28426;42.872;25.314;2023-06-14T12:36:24;5.97;;;4.38;;
42770;SDS011;28426;42.872;25.314;2023-06-14T12:38:56;7.90;;;4.20;;
42770;SDS011;28426;42.872;25.314;2023-06-14T12:41:28;6.07;;;3.42;;
42770;SDS011;28426;42.872;25.314;2023-06-14T12:44:01;5.00;;;3.47;;
42770;SDS011;28426;42.872;25.314;2023-06-14T12:46:32;6.38;;;4.05;;
42770;SDS011;28426;42.872;25.314;2023-06-14T12:49:04;8.23;;;4.03;;
42770;SDS011;28426;42.872;25.314;2023-06-14T12:51:35;5.57;;;3.95;;
42770;SDS011;28426;42.872;25.314;2023-06-14T12:54:06;12.40;;;4.10;;
42770;SDS011;28426;42.872;25.314;2023-06-14T12:56:37;7.47;;;3.85;;
42770;SDS011;28426;42.872;25.314;2023-06-14T12:59:11;14.65;;;5.47;;
42770;SDS011;28426;42.872;25.314;2023-06-14T13:01:42;9.65;;;4.15;;
42770;SDS011;28426;42.872;25.314;2023-06-14T13:04:14;7.78;;;3.67;;
42770;SDS011;28426;42.872;25.314;2023-06-14T13:06:45;9.35;;;4.20;;
42770;SDS011;28426;42.872;25.314;2023-06-14T13:09:16;6.53;;;4.20;;
42770;SDS011;28426;42.872;25.314;2023-06-14T13:11:47;6.70;;;4.63;;
42770;SDS011;28426;42.872;25.314;2023-06-14T13:14:20;6.93;;;4.30;;
42770;SDS011;28426;42.872;25.314;2023-06-14T13:16:52;7.68;;;4.40;;
42770;SDS011;28426;42.872;25.314;2023-06-14T13:19:23;8.23;;;4.57;;
42770;SDS011;28426;42.872;25.314;2023-06-14T13:21:54;7.82;;;4.47;;
42770;SDS011;28426;42.872;25.314;2023-06-14T13:24:25;7.90;;;4.60;;
42770;SDS011;28426;42.872;25.314;2023-06-14T13:26:57;8.70;;;4.60;;
42770;SDS011;28426;42.872;25.314;2023-06-14T13:29:30;5.90;;;4.30;;
42770;SDS011;28426;42.872;25.314;2023-06-14T13:32:03;11.23;;;5.00;;
42770;SDS011;28426;42.872;25.314;2023-06-14T13:34:35;16.25;;;5.43;;
42770;SDS011;28426;42.872;25.314;2023-06-14T13:37:06;7.13;;;4.85;;
42770;SDS011;28426;42.872;25.314;2023-06-14T13:39:37;10.65;;;4.75;;
42770;SDS011;28426;42.872;25.314;2023-06-14T13:42:08;13.35;;;4.85;;
42770;SDS011;28426;42.872;25.314;2023-06-14T13:44:41;9.43;;;4.53;;
42770;SDS011;28426;42.872;25.314;2023-06-14T13:47:12;6.68;;;3.65;;
42770;SDS011;28426;42.872;25.314;2023-06-14T13:49:43;5.70;;;3.20;;
42770;SDS011;28426;42.872;25.314;2023-06-14T13:52:14;14.77;;;4.50;;
42770;SDS011;28426;42.872;25.314;2023-06-14T13:54:45;11.23;;;3.80;;
42770;SDS011;28426;42.872;25.314;2023-06-14T13:57:16;5.07;;;3.08;;
42770;SDS011;28426;42.872;25.314;2023-06-14T13:59:50;7.13;;;3.75;;
42770;SDS011;28426;42.872;25.314;2023-06-14T14:02:22;3.97;;;2.80;;
42770;SDS011;28426;42.872;25.314;2023-06-14T14:04:53;4.05;;;2.60;;
42770;SDS011;28426;42.872;25.314;2023-06-14T14:07:24;7.70;;;3.35;;
42770;SDS011;28426;42.872;25.314;2023-06-14T14:09:57;7.13;;;3.42;;
42770;SDS011;28426;42.872;25.314;2023-06-14T14:12:30;4.28;;;2.97;;
42770;SDS011;28426;42.872;25.314;2023-06-14T14:15:04;5.90;;;3.60;;
42770;SDS011;28426;42.872;25.314;2023-06-14T14:17:40;7.65;;;3.50;;
42770;SDS011;28426;42.872;25.314;2023-06-14T14:20:11;6.60;;;3.45;;
42770;SDS011;28426;42.872;25.314;2023-06-14T14:22:45;5.47;;;3.38;;
42770;SDS011;28426;42.872;25.314;2023-06-14T14:25:16;8.10;;;3.90;;
42770;SDS011;28426;42.872;25.314;2023-06-14T14:27:46;4.95;;;3.40;;
42770;SDS011;28426;42.872;25.314;2023-06-14T14:30:20;4.65;;;2.92;;
42770;SDS011;28426;42.872;25.314;2023-06-14T14:32:51;6.65;;;2.78;;
42770;SDS011;28426;42.872;25.314;2023-06-14T14:35:23;6.32;;;3.30;;
42770;SDS011;28426;42.872;25.314;2023-06-14T14:37:57;9.02;;;3.75;;
42770;SDS011;28426;42.872;25.314;2023-06-14T14:40:30;11.00;;;3.40;;
42770;SDS011;28426;42.872;25.314;2023-06-14T14:43:01;5.97;;;3.15;;
42770;SDS011;28426;42.872;25.314;2023-06-14T14:45:34;7.35;;;3.25;;
42770;SDS011;28426;42.872;25.314;2023-06-14T14:48:06;7.28;;;4.07;;
42770;SDS011;28426;42.872;25.314;2023-06-14T14:50:37;7.47;;;3.60;;
42770;SDS011;28426;42.872;25.314;2023-06-14T14:53:08;7.72;;;3.22;;
42770;SDS011;28426;42.872;25.314;2023-06-14T14:55:39;5.35;;;3.08;;
42770;SDS011;28426;42.872;25.314;2023-06-14T14:58:10;6.07;;;3.17;;
42770;SDS011;28426;42.872;25.314;2023-06-14T15:00:47;7.13;;;3.47;;